X  Sluiten METAR luchtvaart weer gegevens      EHAM Amsterdam Airport Schiphol
Temperatuur
15°C Temperatuur
11°C Dauwpunt
77% Vochtigheid



Wind
7 M/S
15 MPH
24 KM/U
13 KTS



200°
ZZW
Huidig weer

Grotendeels bewolkt Grotendeels bewolkt
Luchtdruk 1012.92 (hPa) - 29.91 (inHg)
Zicht 6.2 (mijl) - 10 (km)
Vliegveld
Vliegveld code EHAM

Locatie : Amsterdam Airport Schiphol
Afstand: 26 (km)

Metar:
EHAM 050555Z 20013KT 9999 BKN028 15/11 Q1013 NOSIG

Tijd: 05-10-2022 07:55 CEST